createdAt,value
2022-12-25T00:01:53.280Z,23.45
2022-12-25T00:06:59.504Z,24.33
2022-12-25T00:12:02.750Z,23.88
2022-12-25T00:17:06.033Z,20.13
2022-12-25T00:22:10.857Z,17.08
2022-12-25T00:27:14.373Z,19.00
2022-12-25T00:32:17.696Z,16.85
2022-12-25T00:37:22.337Z,17.00
2022-12-25T00:42:27.117Z,15.50
2022-12-25T00:47:31.105Z,16.33
2022-12-25T00:52:36.119Z,14.32
2022-12-25T00:57:39.385Z,14.63
2022-12-25T01:02:42.934Z,12.98
2022-12-25T01:07:47.763Z,15.75
2022-12-25T01:12:52.250Z,14.57
2022-12-25T01:17:55.553Z,16.45
2022-12-25T01:23:00.446Z,13.40
2022-12-25T01:28:03.846Z,16.80
2022-12-25T01:33:07.260Z,16.63
2022-12-25T01:38:11.784Z,15.77
2022-12-25T01:43:24.322Z,13.88
2022-12-25T01:48:31.666Z,15.70
2022-12-25T01:53:36.345Z,14.52
2022-12-25T01:58:39.886Z,11.93
2022-12-25T02:03:43.584Z,14.80
2022-12-25T02:08:48.244Z,11.35
2022-12-25T02:13:51.449Z,9.90
2022-12-25T02:19:04.284Z,9.32
2022-12-25T02:24:40.758Z,9.82
2022-12-25T02:29:50.983Z,11.30
2022-12-25T02:35:01.739Z,9.45
2022-12-25T02:40:15.874Z,8.55
2022-12-25T02:45:42.126Z,8.27
2022-12-25T02:51:03.112Z,9.40
2022-12-25T02:56:24.116Z,9.90
2022-12-25T03:01:51.682Z,8.93
2022-12-25T03:07:09.355Z,8.98
2022-12-25T03:12:19.669Z,9.05
2022-12-25T03:17:24.534Z,10.15
2022-12-25T03:22:55.984Z,8.88
2022-12-25T03:28:00.275Z,8.60
2022-12-25T03:33:43.404Z,6.53
2022-12-25T03:39:16.410Z,5.13
2022-12-25T03:44:47.517Z,7.60
2022-12-25T03:50:17.134Z,5.00
2022-12-25T03:55:38.771Z,3.45
2022-12-25T04:00:59.314Z,6.30
2022-12-25T04:06:21.715Z,5.03
2022-12-25T04:11:42.221Z,5.63
2022-12-25T04:17:02.719Z,6.38
2022-12-25T04:22:24.809Z,3.65
2022-12-25T04:27:45.535Z,4.45
2022-12-25T04:33:05.905Z,5.88
2022-12-25T04:38:10.685Z,7.15
2022-12-25T04:43:14.029Z,6.82
2022-12-25T04:48:17.484Z,6.20
2022-12-25T04:53:22.337Z,6.57
2022-12-25T04:58:25.760Z,5.75
2022-12-25T05:03:29.153Z,3.38
2022-12-25T05:08:35.254Z,5.63
2022-12-25T05:13:40.815Z,6.18
2022-12-25T05:18:44.477Z,5.63
2022-12-25T05:23:51.585Z,7.05
2022-12-25T05:28:55.836Z,8.90
2022-12-25T05:33:59.242Z,7.47
2022-12-25T05:39:03.967Z,7.75
2022-12-25T05:44:07.332Z,7.07
2022-12-25T05:49:10.664Z,9.80
2022-12-25T05:54:16.939Z,8.88
2022-12-25T05:59:20.472Z,8.20
2022-12-25T06:04:23.847Z,8.98
2022-12-25T06:09:28.688Z,7.85
2022-12-25T06:14:32.231Z,10.70
2022-12-25T06:19:35.451Z,8.50
2022-12-25T06:24:40.851Z,9.73
2022-12-25T06:29:44.181Z,8.82
2022-12-25T06:34:48.971Z,9.23
2022-12-25T06:39:53.647Z,8.88
2022-12-25T06:44:56.992Z,9.73
2022-12-25T06:50:00.217Z,10.13
2022-12-25T06:55:04.983Z,10.40
2022-12-25T07:00:10.674Z,9.18
2022-12-25T07:05:14.042Z,11.40
2022-12-25T07:10:18.937Z,9.35
2022-12-25T07:15:22.174Z,9.10
2022-12-25T07:20:26.251Z,9.40
2022-12-25T07:25:36.827Z,9.77
2022-12-25T07:30:40.553Z,9.82
2022-12-25T07:35:44.272Z,8.98
2022-12-25T07:40:48.882Z,7.82
2022-12-25T07:45:56.204Z,14.65
2022-12-25T07:51:00.624Z,8.65
2022-12-25T07:56:07.628Z,9.32
2022-12-25T08:01:13.618Z,10.40
2022-12-25T08:06:17.106Z,9.90
2022-12-25T08:11:21.877Z,9.80
2022-12-25T08:16:25.446Z,9.75
2022-12-25T08:21:28.786Z,9.85
2022-12-25T08:26:33.806Z,9.20
2022-12-25T08:31:42.427Z,8.25
2022-12-25T08:36:49.099Z,11.48
2022-12-25T08:41:53.720Z,12.48
2022-12-25T08:46:57.929Z,11.30
2022-12-25T08:52:02.823Z,10.02
2022-12-25T08:57:07.716Z,10.88
2022-12-25T09:02:12.575Z,7.78
2022-12-25T09:07:16.028Z,11.38
2022-12-25T09:12:21.245Z,9.57
2022-12-25T09:17:24.490Z,10.85
2022-12-25T09:22:27.784Z,7.60
2022-12-25T09:27:32.613Z,10.13
2022-12-25T09:32:35.988Z,9.27
2022-12-25T09:37:39.354Z,11.88
2022-12-25T09:42:45.367Z,10.48
2022-12-25T09:47:50.571Z,10.30
2022-12-25T09:52:58.667Z,9.25
2022-12-25T09:58:12.531Z,10.68
2022-12-25T10:03:24.745Z,9.50
2022-12-25T10:08:48.087Z,8.33
2022-12-25T10:14:08.386Z,10.02
2022-12-25T10:19:23.114Z,8.15
2022-12-25T10:24:34.698Z,10.63
2022-12-25T10:29:39.928Z,13.77
2022-12-25T10:34:43.899Z,10.50
2022-12-25T10:39:47.348Z,8.90
2022-12-25T10:45:03.003Z,10.07
2022-12-25T10:50:12.656Z,14.73
2022-12-25T10:55:26.620Z,12.70
2022-12-25T11:00:34.799Z,8.88
2022-12-25T11:05:38.268Z,9.68
2022-12-25T11:10:44.100Z,12.55
2022-12-25T11:15:50.773Z,11.55
2022-12-25T11:20:55.515Z,9.40
2022-12-25T11:26:01.337Z,11.40
2022-12-25T11:31:10.311Z,8.68
2022-12-25T11:36:21.599Z,9.75
2022-12-25T11:41:33.055Z,9.55
2022-12-25T11:46:43.295Z,11.02
2022-12-25T11:51:48.963Z,9.43
2022-12-25T11:56:52.708Z,10.85
2022-12-25T12:02:03.126Z,9.00
2022-12-25T12:07:14.837Z,11.25
2022-12-25T12:12:25.031Z,14.73
2022-12-25T12:17:29.734Z,11.55
2022-12-25T12:22:32.999Z,11.45
2022-12-25T12:27:39.094Z,11.68
2022-12-25T12:32:45.312Z,11.77
2022-12-25T12:37:52.598Z,16.52
2022-12-25T12:42:56.464Z,9.75
2022-12-25T12:48:01.143Z,12.35
2022-12-25T12:53:19.890Z,11.23
2022-12-25T12:58:31.112Z,14.38
2022-12-25T13:04:09.323Z,10.73
2022-12-25T13:09:26.947Z,10.43
2022-12-25T13:14:30.375Z,15.25
2022-12-25T13:19:39.538Z,15.82
2022-12-25T13:24:43.164Z,15.07
2022-12-25T13:29:46.511Z,17.67
2022-12-25T13:34:52.145Z,18.30
2022-12-25T13:39:58.209Z,18.80
2022-12-25T13:45:06.228Z,15.05
2022-12-25T13:50:24.118Z,17.33
2022-12-25T13:55:29.153Z,21.75
2022-12-25T14:00:36.897Z,18.65
2022-12-25T14:05:43.448Z,19.65
2022-12-25T14:10:52.037Z,14.98
2022-12-25T14:15:56.875Z,16.70
2022-12-25T14:21:04.775Z,14.63
2022-12-25T14:26:08.315Z,16.80
2022-12-25T14:31:13.753Z,13.90
2022-12-25T14:36:19.399Z,18.27
2022-12-25T14:41:33.817Z,22.10
2022-12-25T14:46:37.327Z,20.65
2022-12-25T14:51:44.379Z,21.73
2022-12-25T14:56:48.850Z,20.80
2022-12-25T15:01:56.007Z,17.05
2022-12-25T15:07:07.488Z,14.48
2022-12-25T15:12:11.732Z,18.52
2022-12-25T15:17:28.347Z,22.80
2022-12-25T15:22:54.201Z,20.42
2022-12-25T15:27:58.227Z,16.60
2022-12-25T15:33:01.508Z,18.85
2022-12-25T15:38:06.386Z,13.82
2022-12-25T15:43:38.914Z,15.55
2022-12-25T15:48:36.628Z,14.23
2022-12-25T15:53:41.315Z,34.40
2022-12-25T15:58:44.531Z,17.00
2022-12-25T16:03:49.047Z,25.52
2022-12-25T16:08:53.675Z,25.08
2022-12-25T16:13:56.894Z,13.35
2022-12-25T16:19:00.153Z,16.75
2022-12-25T16:24:05.500Z,15.98
2022-12-25T16:29:09.197Z,18.77
2022-12-25T16:34:12.899Z,21.20
2022-12-25T16:39:17.501Z,23.00
2022-12-25T16:44:20.771Z,39.10
2022-12-25T16:49:24.184Z,18.85
2022-12-25T16:54:28.984Z,23.67
2022-12-25T16:59:33.090Z,19.85
2022-12-25T17:04:36.494Z,25.77
2022-12-25T17:09:44.304Z,17.13
2022-12-25T17:14:48.133Z,19.77
2022-12-25T17:19:51.417Z,13.07
2022-12-25T17:24:56.026Z,14.43
2022-12-25T17:35:21.518Z,13.63
2022-12-25T17:40:26.702Z,18.13
2022-12-25T17:45:30.038Z,16.45
2022-12-25T17:50:37.509Z,17.73
2022-12-25T17:55:45.916Z,17.05
2022-12-25T18:00:49.182Z,17.10
2022-12-25T18:05:52.668Z,12.90
2022-12-25T18:10:58.105Z,14.35
2022-12-25T18:16:04.296Z,14.30
2022-12-25T18:21:08.085Z,14.82
2022-12-25T18:26:13.168Z,12.98
2022-12-25T18:31:18.935Z,13.77
2022-12-25T18:36:24.838Z,15.98
2022-12-25T18:41:30.769Z,22.45
2022-12-25T18:46:34.207Z,12.95
2022-12-25T18:51:37.598Z,13.75
2022-12-25T18:56:42.325Z,15.13
2022-12-25T19:07:04.641Z,17.58
2022-12-25T19:12:10.850Z,15.70
2022-12-25T19:17:14.219Z,16.45
2022-12-25T19:22:17.692Z,16.23
2022-12-25T19:27:22.307Z,20.52
2022-12-25T19:32:25.654Z,17.27
2022-12-25T19:37:28.877Z,17.73
2022-12-25T19:42:33.574Z,18.95
2022-12-25T19:47:36.910Z,16.30
2022-12-25T19:52:40.288Z,18.23
2022-12-25T19:57:44.991Z,17.52
2022-12-25T20:02:48.455Z,19.02
2022-12-25T20:07:51.913Z,18.20
2022-12-25T20:12:57.121Z,19.08
2022-12-25T20:18:00.434Z,17.45
2022-12-25T20:23:03.698Z,20.50
2022-12-25T20:28:08.559Z,36.00
2022-12-25T20:33:11.847Z,31.15
2022-12-25T20:38:15.394Z,26.27
2022-12-25T20:43:20.026Z,24.83
2022-12-25T20:48:23.240Z,19.83
2022-12-25T20:53:26.808Z,16.73
2022-12-25T20:58:32.383Z,16.63
2022-12-25T21:03:38.244Z,17.63
2022-12-25T21:08:42.224Z,14.93
2022-12-25T21:13:47.488Z,14.00
2022-12-25T21:18:52.730Z,14.55
2022-12-25T21:23:58.069Z,17.13
2022-12-25T21:29:03.890Z,14.65
2022-12-25T21:34:07.525Z,16.80
2022-12-25T21:39:12.595Z,13.82
2022-12-25T21:44:17.301Z,15.05
2022-12-25T21:49:34.395Z,19.45
2022-12-25T21:54:37.952Z,16.73
2022-12-25T21:59:42.666Z,17.88
2022-12-25T22:04:46.335Z,14.73
2022-12-25T22:09:52.636Z,18.77
2022-12-25T22:15:02.917Z,14.88
2022-12-25T22:20:10.361Z,18.08
2022-12-25T22:25:14.318Z,13.07
2022-12-25T22:30:22.140Z,11.73
2022-12-25T22:35:26.041Z,11.45
2022-12-25T22:40:29.289Z,16.38
2022-12-25T22:45:33.929Z,12.27
2022-12-25T22:50:37.232Z,14.63
2022-12-25T22:55:40.548Z,10.27
2022-12-25T23:00:46.569Z,11.18
2022-12-25T23:05:55.372Z,12.40
2022-12-25T23:11:03.683Z,8.00
2022-12-25T23:16:13.900Z,12.75
2022-12-25T23:21:36.974Z,12.95
2022-12-25T23:26:40.321Z,24.23
2022-12-25T23:31:45.161Z,10.95
2022-12-25T23:36:48.749Z,9.30
2022-12-25T23:41:52.129Z,10.07
2022-12-25T23:46:58.512Z,12.98
2022-12-25T23:52:01.840Z,10.75
2022-12-25T23:57:05.820Z,8.60
